Harare, Zimbabwe
Current Conditions -  °F | °C
As of 5:00 PM on Wednesday 22 Oct 2014 (Local Time) from FVHA Reporting Station
Clear Clear  
Wind Chill: 82°   Ceiling: Unl
Heat Index: 82°   Visibility: 6mi
Dew Point: 41°   Wind: 10mph
Humidity: 23%   Direction: 80°E
Pressure: 30.18"   Gusts: NA
Location:  17.82°S, 31.05°E
Report Text: FVHA 221500Z 08009KT CAVOK 28/05 Q1022 NOSIG
Loading
Personal Weather Stations






























Interactive Weather Map
Tropical Storm Tracking
New forecast layout! Learn more

10-Day Weather Forecast

Advertisements
Track Severe Weather on mobile